Time;durP1;ratioP1;P1;durP2;ratioP2;P2;SDS_P1;SDS_P2;PMS_P1;PMS_P2;Temp;Humidity;BMP_temperature;BMP_pressure;BME280_temperature;BME280_humidity;BME280_pressure;Samples;Min_cycle;Max_cycle;Signal;HPM_P1;HPM_P2
2023/06/17 00:02:11;;;;;;;9.88;6.93;;;;;;;-145.41;100.00;58600.66;5002902;28;20481;-77
2023/06/17 00:04:37;;;;;;;10.90;5.85;;;;;;;-145.41;100.00;58600.66;5003353;28;20033;-76
2023/06/17 00:07:02;;;;;;;10.10;6.38;;;;;;;-145.41;100.00;58600.66;5006090;28;20036;-76
2023/06/17 00:09:27;;;;;;;10.35;6.78;;;;;;;-145.41;100.00;58600.66;5003304;28;20042;-76
2023/06/17 00:11:56;;;;;;;8.90;6.45;;;;;;;-145.41;100.00;58600.66;5003713;28;20034;-76
2023/06/17 00:14:22;;;;;;;9.13;5.53;;;;;;;-145.41;100.00;58600.66;4997353;28;20426;-76
2023/06/17 00:16:47;;;;;;;7.78;5.28;;;;;;;-145.41;100.00;58600.66;5000413;28;20089;-76
2023/06/17 00:19:13;;;;;;;8.80;5.70;;;;;;;-145.41;100.00;58600.66;4989725;28;20443;-76
2023/06/17 00:21:39;;;;;;;8.48;4.82;;;;;;;-145.41;100.00;58600.66;4980749;28;20489;-76
2023/06/17 00:24:05;;;;;;;10.55;5.30;;;;;;;-145.41;100.00;58600.66;5002025;28;20119;-76
2023/06/17 00:26:30;;;;;;;7.03;5.03;;;;;;;-145.41;100.00;58600.66;5000655;28;20425;-76
2023/06/17 00:28:55;;;;;;;7.35;5.38;;;;;;;-145.41;100.00;58600.66;4999985;28;20489;-76
2023/06/17 00:31:21;;;;;;;7.57;5.00;;;;;;;-145.41;100.00;58600.66;4996892;28;20489;-75
2023/06/17 00:33:46;;;;;;;7.30;5.03;;;;;;;-145.41;100.00;58600.66;4990361;28;20084;-76
2023/06/17 00:36:11;;;;;;;7.63;4.20;;;;;;;-145.41;100.00;58600.66;5000860;28;20026;-76
2023/06/17 00:38:37;;;;;;;6.90;4.00;;;;;;;-145.41;100.00;58600.66;5001299;28;20085;-76
2023/06/17 00:41:02;;;;;;;5.65;3.80;;;;;;;-145.41;100.00;58600.66;5000783;28;20040;-76
2023/06/17 00:43:27;;;;;;;6.22;4.47;;;;;;;-145.41;100.00;58600.66;5001599;28;20080;-76
2023/06/17 00:45:53;;;;;;;5.82;3.63;;;;;;;-145.41;100.00;58600.66;5001870;28;20038;-76
2023/06/17 00:48:18;;;;;;;7.30;4.15;;;;;;;-145.41;100.00;58600.66;5001145;28;20097;-76
2023/06/17 00:50:46;;;;;;;8.07;4.28;;;;;;;-145.41;100.00;58600.66;5001803;28;20036;-75
2023/06/17 00:53:12;;;;;;;5.32;4.28;;;;;;;-145.41;100.00;58600.66;5000644;28;20615;-75
2023/06/17 00:55:39;;;;;;;5.07;3.40;;;;;;;-145.41;100.00;58600.66;5001318;28;20449;-74
2023/06/17 00:58:06;;;;;;;6.53;3.83;;;;;;;-145.41;100.00;58600.66;4984362;28;20386;-75
2023/06/17 01:00:31;;;;;;;7.68;5.03;;;;;;;-145.41;100.00;58600.66;5000688;28;20507;-75
2023/06/17 01:02:58;;;;;;;7.90;3.85;;;;;;;-145.41;100.00;58600.66;5001058;28;20041;-75
2023/06/17 01:05:24;;;;;;;6.50;4.40;;;;;;;-145.41;100.00;58600.66;4986932;28;20034;-75
2023/06/17 01:08:04;;;;;;;7.13;4.00;;;;;;;-145.41;100.00;58600.66;4999897;28;20030;-75
2023/06/17 01:10:37;;;;;;;6.22;4.13;;;;;;;-145.41;100.00;58600.66;4997723;28;20042;-75
2023/06/17 01:13:05;;;;;;;5.57;4.35;;;;;;;-145.41;100.00;58600.66;5001325;28;20493;-74
2023/06/17 01:15:33;;;;;;;5.00;3.70;;;;;;;-145.41;100.00;58600.66;4986899;28;20041;-74
2023/06/17 01:18:00;;;;;;;5.18;3.10;;;;;;;-145.41;100.00;58600.66;4989427;28;20033;-74
2023/06/17 01:20:28;;;;;;;4.07;3.13;;;;;;;-145.41;100.00;58600.66;4989907;28;20036;-74
2023/06/17 01:22:55;;;;;;;5.65;3.30;;;;;;;-145.41;100.00;58600.66;4997095;28;20026;-75
2023/06/17 01:25:29;;;;;;;4.68;3.47;;;;;;;-145.41;100.00;58600.66;5007850;28;20025;-74
2023/06/17 01:27:55;;;;;;;7.68;3.40;;;;;;;-145.41;100.00;58600.66;5002081;28;20477;-74
2023/06/17 01:30:21;;;;;;;4.82;3.65;;;;;;;-145.41;100.00;58600.66;5000118;28;20121;-74
2023/06/17 01:32:46;;;;;;;6.50;4.07;;;;;;;-145.41;100.00;58600.66;5003757;28;20501;-74
2023/06/17 01:35:15;;;;;;;6.55;3.60;;;;;;;-145.41;100.00;58600.66;4991002;28;20417;-74
2023/06/17 01:37:47;;;;;;;5.47;3.50;;;;;;;-145.41;100.00;58600.66;5004906;28;20052;-74
2023/06/17 01:40:14;;;;;;;6.13;4.00;;;;;;;-145.41;100.00;58600.66;4985405;28;20043;-73
2023/06/17 01:42:45;;;;;;;7.10;4.85;;;;;;;-145.41;100.00;58600.66;5003105;28;20033;-74
2023/06/17 01:45:11;;;;;;;5.47;3.80;;;;;;;-145.41;100.00;58600.66;4982466;28;20704;-74
2023/06/17 01:47:37;;;;;;;5.53;4.15;;;;;;;-145.41;100.00;58600.66;5005168;28;20045;-74
2023/06/17 01:50:04;;;;;;;6.82;4.30;;;;;;;-145.41;100.00;58600.66;5001517;28;20493;-74
2023/06/17 01:52:30;;;;;;;4.50;3.30;;;;;;;-145.41;100.00;58600.66;4984749;28;20030;-74
2023/06/17 01:54:57;;;;;;;5.43;4.32;;;;;;;-145.41;100.00;58600.66;5009828;28;20034;-74
2023/06/17 01:57:23;;;;;;;5.38;3.20;;;;;;;-145.41;100.00;58600.66;4987538;28;20432;-74
2023/06/17 01:59:49;;;;;;;5.57;4.40;;;;;;;-145.41;100.00;58600.66;5002280;28;20493;-74
2023/06/17 02:02:15;;;;;;;5.90;4.05;;;;;;;-145.41;100.00;58600.66;4992833;28;20034;-74
2023/06/17 02:04:41;;;;;;;5.40;3.35;;;;;;;-145.41;100.00;58600.66;5006766;28;20038;-75
2023/06/17 02:07:06;;;;;;;3.72;2.78;;;;;;;-145.41;100.00;58600.66;4985857;28;20026;-74
2023/06/17 02:09:32;;;;;;;4.10;2.90;;;;;;;-145.41;100.00;58600.66;5003635;28;20045;-74
2023/06/17 02:11:58;;;;;;;4.03;2.60;;;;;;;-145.41;100.00;58600.66;5003808;28;20033;-75
2023/06/17 02:14:23;;;;;;;9.85;3.47;;;;;;;-145.41;100.00;58600.66;5002523;28;20092;-74
2023/06/17 02:16:49;;;;;;;6.00;3.72;;;;;;;-145.41;100.00;58600.66;4989273;28;20033;-74
2023/06/17 02:19:15;;;;;;;4.65;3.50;;;;;;;-145.41;100.00;58600.66;4987155;28;20471;-73
2023/06/17 02:21:44;;;;;;;5.97;4.35;;;;;;;-145.41;100.00;58600.66;4995637;28;20041;-74
2023/06/17 02:24:10;;;;;;;5.35;3.28;;;;;;;-145.41;100.00;58600.66;5004815;28;20117;-73
2023/06/17 02:26:39;;;;;;;5.50;4.00;;;;;;;-145.41;100.00;58600.66;4997464;28;20120;-74
2023/06/17 02:29:05;;;;;;;6.40;3.90;;;;;;;-145.41;100.00;58600.66;4992560;28;20036;-74
2023/06/17 02:31:32;;;;;;;5.78;4.18;;;;;;;-145.41;100.00;58600.66;4998164;28;20081;-74
2023/06/17 02:33:57;;;;;;;5.13;4.03;;;;;;;-145.41;100.00;58600.66;4990801;28;20121;-74
2023/06/17 02:36:23;;;;;;;6.13;3.80;;;;;;;-145.41;100.00;58600.66;5000421;28;20022;-74
2023/06/17 02:38:52;;;;;;;5.63;4.25;;;;;;;-145.41;100.00;58600.66;5004138;28;20079;-74
2023/06/17 02:41:18;;;;;;;6.90;4.50;;;;;;;-145.41;100.00;58600.66;4999578;28;20034;-73
2023/06/17 02:43:43;;;;;;;6.03;4.32;;;;;;;-145.41;100.00;58600.66;5002216;28;20080;-74
2023/06/17 02:46:09;;;;;;;5.70;4.43;;;;;;;-145.41;100.00;58600.66;5004344;28;20026;-74
2023/06/17 02:48:35;;;;;;;6.22;4.35;;;;;;;-145.41;100.00;58600.66;4999136;28;20078;-73
2023/06/17 02:51:01;;;;;;;5.93;4.63;;;;;;;-145.41;100.00;58600.66;5000317;28;20029;-74
2023/06/17 02:53:26;;;;;;;8.55;3.67;;;;;;;-145.41;100.00;58600.66;4987511;28;20030;-73
2023/06/17 02:55:53;;;;;;;5.20;3.25;;;;;;;-145.41;100.00;58600.66;5005457;28;20042;-74
2023/06/17 02:58:20;;;;;;;5.65;3.75;;;;;;;-145.41;100.00;58600.66;4982930;28;20072;-74
2023/06/17 03:00:50;;;;;;;6.65;4.30;;;;;;;-145.41;100.00;58600.66;4996761;28;20027;-74
2023/06/17 03:03:15;;;;;;;6.95;4.95;;;;;;;-145.41;100.00;58600.66;5004456;28;20040;-74
2023/06/17 03:05:41;;;;;;;7.53;5.10;;;;;;;-145.41;100.00;58600.66;5005496;28;20033;-74
2023/06/17 03:08:07;;;;;;;8.70;4.72;;;;;;;-145.41;100.00;58600.66;4998560;28;20049;-74
2023/06/17 03:10:34;;;;;;;5.15;3.60;;;;;;;-145.41;100.00;58600.66;4984828;28;20030;-74
2023/06/17 03:13:06;;;;;;;5.40;3.72;;;;;;;-145.41;100.00;58600.66;4988481;28;20038;-74
2023/06/17 03:15:31;;;;;;;8.45;4.57;;;;;;;-145.41;100.00;58600.66;5002127;28;20055;-74
2023/06/17 03:17:57;;;;;;;5.93;4.22;;;;;;;-145.41;100.00;58600.66;5005526;28;20041;-74
2023/06/17 03:20:28;;;;;;;7.30;4.63;;;;;;;-145.41;100.00;58600.66;4985277;28;20041;-74
2023/06/17 03:22:55;;;;;;;7.72;4.93;;;;;;;-145.41;100.00;58600.66;4985268;28;20057;-73
2023/06/17 03:25:22;;;;;;;6.13;3.97;;;;;;;-145.41;100.00;58600.66;4991689;28;20034;-74
2023/06/17 03:27:50;;;;;;;7.72;5.53;;;;;;;-145.41;100.00;58600.66;5005561;28;20400;-74
2023/06/17 03:30:15;;;;;;;7.18;6.05;;;;;;;-145.41;100.00;58600.66;5000088;28;20045;-74
2023/06/17 03:32:44;;;;;;;6.90;5.43;;;;;;;-145.41;100.00;58600.66;5002165;28;20063;-74
2023/06/17 03:35:10;;;;;;;7.60;6.00;;;;;;;-145.41;100.00;58600.66;4989069;28;20037;-74
2023/06/17 03:37:36;;;;;;;9.27;6.30;;;;;;;-145.41;100.00;58600.66;4981639;28;20413;-74
2023/06/17 03:40:01;;;;;;;6.65;4.97;;;;;;;-145.41;100.00;58600.66;4998223;28;20477;-74
2023/06/17 03:42:30;;;;;;;6.10;4.88;;;;;;;-145.41;100.00;58600.66;5006408;28;20121;-73
2023/06/17 03:44:56;;;;;;;9.55;7.15;;;;;;;-145.41;100.00;58600.66;5000497;28;20034;-74
2023/06/17 03:47:22;;;;;;;8.27;6.15;;;;;;;-145.41;100.00;58600.66;4999147;28;20045;-74
2023/06/17 03:49:47;;;;;;;7.68;6.18;;;;;;;-145.41;100.00;58600.66;5030148;22;20042;-75
2023/06/17 03:52:12;;;;;;;13.63;9.70;;;;;;;-145.41;100.00;58600.66;5011864;28;20041;-74
2023/06/17 03:54:39;;;;;;;14.07;11.68;;;;;;;-145.41;100.00;58600.66;5009563;28;20057;-75
2023/06/17 03:57:05;;;;;;;12.68;10.27;;;;;;;-145.41;100.00;58600.66;4994589;28;20034;-75
2023/06/17 03:59:30;;;;;;;13.43;12.10;;;;;;;-145.41;100.00;58600.66;4991118;28;20378;-74
2023/06/17 04:01:55;;;;;;;12.70;11.40;;;;;;;-145.41;100.00;58600.66;4994498;28;20036;-75
2023/06/17 04:04:21;;;;;;;16.10;14.55;;;;;;;-145.41;100.00;58600.66;4994604;28;20374;-75
2023/06/17 04:06:47;;;;;;;10.80;9.68;;;;;;;-145.41;100.00;58600.66;4993733;28;20447;-75
2023/06/17 04:09:12;;;;;;;13.18;11.15;;;;;;;-145.41;100.00;58600.66;4993751;28;20064;-75
2023/06/17 04:11:38;;;;;;;14.20;9.95;;;;;;;-145.41;100.00;58600.66;4994476;28;20080;-74
2023/06/17 04:14:03;;;;;;;11.60;9.90;;;;;;;-145.41;100.00;58600.66;5011332;28;20042;-72
2023/06/17 04:16:35;;;;;;;13.02;11.35;;;;;;;-145.41;100.00;58600.66;4992952;28;20414;-76
2023/06/17 04:19:01;;;;;;;11.55;10.32;;;;;;;-145.41;100.00;58600.66;4993345;28;20038;-74
2023/06/17 04:21:28;;;;;;;10.15;9.05;;;;;;;-145.41;100.00;58600.66;4993932;28;20029;-74
2023/06/17 04:23:53;;;;;;;12.45;9.90;;;;;;;-145.41;100.00;58600.66;4994220;28;20092;-73
2023/06/17 04:26:19;;;;;;;12.00;10.35;;;;;;;-145.41;100.00;58600.66;4994230;28;20022;-73
2023/06/17 04:28:46;;;;;;;12.10;10.38;;;;;;;-145.41;100.00;58600.66;4996854;28;20026;-73
2023/06/17 04:31:11;;;;;;;10.25;8.88;;;;;;;-145.41;100.00;58600.66;5005798;28;20031;-73
2023/06/17 04:33:38;;;;;;;12.88;10.55;;;;;;;-145.41;100.00;58600.66;4993520;28;20034;-74
2023/06/17 04:36:11;;;;;;;11.02;9.40;;;;;;;-145.41;100.00;58600.66;4993782;28;20096;-74
2023/06/17 04:38:41;;;;;;;10.18;8.55;;;;;;;-145.41;100.00;58600.66;4993842;28;20116;-74
2023/06/17 04:41:08;;;;;;;11.73;9.02;;;;;;;-145.41;100.00;58600.66;4993495;28;20049;-73
2023/06/17 04:43:36;;;;;;;11.20;9.35;;;;;;;-145.41;100.00;58600.66;4993100;28;20501;-73
2023/06/17 04:46:04;;;;;;;11.60;8.98;;;;;;;-145.41;100.00;58600.66;4993757;28;20045;-72
2023/06/17 04:48:30;;;;;;;11.35;9.77;;;;;;;-145.41;100.00;58600.66;4993112;28;20523;-73
2023/06/17 04:50:56;;;;;;;12.13;9.50;;;;;;;-145.41;100.00;58600.66;4992817;28;20061;-74
2023/06/17 04:53:22;;;;;;;12.55;9.40;;;;;;;-145.41;100.00;58600.66;5006093;28;20084;-73
2023/06/17 04:55:47;;;;;;;12.52;8.90;;;;;;;-145.41;100.00;58600.66;4993692;28;20037;-72
2023/06/17 04:58:13;;;;;;;14.00;10.75;;;;;;;-145.41;100.00;58600.66;4991785;28;20041;-73
2023/06/17 05:00:59;;;;;;;10.82;9.35;;;;;;;-145.41;100.00;58600.66;4993429;28;20030;-73
2023/06/17 05:03:26;;;;;;;12.30;9.52;;;;;;;-145.41;100.00;58600.66;4991701;28;20041;-73
2023/06/17 05:05:53;;;;;;;12.85;10.23;;;;;;;-145.41;100.00;58600.66;5009190;28;20041;-72
2023/06/17 05:08:19;;;;;;;11.68;10.07;;;;;;;-145.41;100.00;58600.66;4992009;28;20515;-74
2023/06/17 05:10:45;;;;;;;12.38;10.10;;;;;;;-145.41;100.00;58600.66;4994723;28;20029;-73
2023/06/17 05:13:10;;;;;;;13.70;9.13;;;;;;;-145.41;100.00;58600.66;4992359;28;20095;-73
2023/06/17 05:15:36;;;;;;;11.82;10.20;;;;;;;-145.41;100.00;58600.66;4996287;28;20026;-74
2023/06/17 05:18:01;;;;;;;15.05;10.07;;;;;;;-145.41;100.00;58600.66;4996317;28;20037;-73
2023/06/17 05:20:27;;;;;;;14.27;11.55;;;;;;;-145.41;100.00;58600.66;4992407;28;20120;-74
2023/06/17 05:22:52;;;;;;;13.65;10.80;;;;;;;-145.41;100.00;58600.66;4990153;28;20434;-73
2023/06/17 05:25:17;;;;;;;11.82;10.23;;;;;;;-145.41;100.00;58600.66;4993406;28;20045;-71
2023/06/17 05:27:43;;;;;;;12.43;10.60;;;;;;;-145.41;100.00;58600.66;4993201;28;20028;-73
2023/06/17 05:30:09;;;;;;;11.80;9.55;;;;;;;-145.41;100.00;58600.66;4973480;28;20023;-73
2023/06/17 05:32:35;;;;;;;14.15;11.82;;;;;;;-145.41;100.00;58600.66;5006272;28;20025;-75
2023/06/17 05:35:00;;;;;;;15.07;10.70;;;;;;;-145.41;100.00;58600.66;4993295;28;20088;-73
2023/06/17 05:37:27;;;;;;;12.68;10.05;;;;;;;-145.41;100.00;58600.66;4992810;28;20037;-73
2023/06/17 05:39:53;;;;;;;12.65;9.90;;;;;;;-145.41;100.00;58600.66;5010006;28;20056;-73
2023/06/17 05:42:19;;;;;;;12.77;10.73;;;;;;;-145.41;100.00;58600.66;4988889;28;20050;-73
2023/06/17 05:44:45;;;;;;;13.95;10.80;;;;;;;-145.41;100.00;58600.66;4996211;28;20029;-73
2023/06/17 05:47:11;;;;;;;14.75;12.18;;;;;;;-145.41;100.00;58600.66;4998933;28;20029;-73
2023/06/17 05:49:36;;;;;;;12.43;10.40;;;;;;;-145.41;100.00;58600.66;5008616;28;20022;-74
2023/06/17 05:52:02;;;;;;;13.18;11.27;;;;;;;-145.41;100.00;58600.66;4996841;28;20104;-74
2023/06/17 05:54:27;;;;;;;13.40;11.85;;;;;;;-145.41;100.00;58600.66;4993193;28;20408;-74
2023/06/17 05:56:53;;;;;;;12.77;10.20;;;;;;;-145.41;100.00;58600.66;4992914;28;20447;-74
2023/06/17 05:59:18;;;;;;;13.45;10.95;;;;;;;-145.41;100.00;58600.66;4991675;28;20160;-74
2023/06/17 06:01:44;;;;;;;12.25;10.15;;;;;;;-145.41;100.00;58600.66;4990507;28;20636;-74
2023/06/17 06:04:10;;;;;;;11.55;10.30;;;;;;;-145.41;100.00;58600.66;4993109;28;20120;-74
2023/06/17 06:06:35;;;;;;;12.52;10.57;;;;;;;-145.41;100.00;58600.66;5010745;28;20381;-73
2023/06/17 06:09:00;;;;;;;11.55;10.35;;;;;;;-145.41;100.00;58600.66;4991944;28;20407;-74
2023/06/17 06:11:26;;;;;;;12.80;11.50;;;;;;;-145.41;100.00;58600.66;4992261;28;20037;-76
2023/06/17 06:13:53;;;;;;;16.30;12.90;;;;;;;-145.41;100.00;58600.66;4998739;28;20416;-74
2023/06/17 06:16:19;;;;;;;14.60;12.02;;;;;;;-145.41;100.00;58600.66;4996180;28;20034;-74
2023/06/17 06:18:44;;;;;;;13.75;12.38;;;;;;;-145.41;100.00;58600.66;4995960;28;20105;-74
2023/06/17 06:21:10;;;;;;;15.57;13.30;;;;;;;-145.41;100.00;58600.66;4995761;28;20049;-74
2023/06/17 06:23:37;;;;;;;14.95;12.50;;;;;;;-145.41;100.00;58600.66;4996327;28;20540;-73
2023/06/17 06:26:03;;;;;;;17.48;13.20;;;;;;;-145.41;100.00;58600.66;4995848;28;20485;-74
2023/06/17 06:28:29;;;;;;;15.38;13.40;;;;;;;-145.41;100.00;58600.66;4995946;28;20499;-73
2023/06/17 06:30:55;;;;;;;15.23;13.65;;;;;;;-145.41;100.00;58600.66;4995545;28;20049;-74
2023/06/17 06:33:22;;;;;;;17.33;14.45;;;;;;;-145.41;100.00;58600.66;4993283;28;20033;-74
2023/06/17 06:35:48;;;;;;;17.23;14.45;;;;;;;-145.41;100.00;58600.66;4992565;28;20116;-74
2023/06/17 06:38:17;;;;;;;22.63;15.80;;;;;;;-145.41;100.00;58600.66;4995952;28;20022;-74
2023/06/17 06:40:42;;;;;;;16.50;14.80;;;;;;;-145.41;100.00;58600.66;4994958;28;20087;-74
2023/06/17 06:43:08;;;;;;;16.98;14.80;;;;;;;-145.41;100.00;58600.66;4996116;28;20030;-74
2023/06/17 06:45:46;;;;;;;17.50;14.65;;;;;;;-145.41;100.00;58600.66;4996075;28;20428;-74
2023/06/17 06:48:12;;;;;;;15.02;12.63;;;;;;;-145.41;100.00;58600.66;4995573;28;20029;-74
2023/06/17 06:50:37;;;;;;;17.05;14.15;;;;;;;-145.41;100.00;58600.66;4993923;28;20052;-74
2023/06/17 06:53:03;;;;;;;17.80;16.00;;;;;;;-145.41;100.00;58600.66;4992681;28;20030;-74
2023/06/17 06:55:29;;;;;;;16.75;13.60;;;;;;;-145.41;100.00;58600.66;5012970;28;20122;-74
2023/06/17 06:57:55;;;;;;;19.65;15.73;;;;;;;-145.41;100.00;58600.66;5013171;28;20037;-74
2023/06/17 07:00:22;;;;;;;15.07;13.38;;;;;;;-145.41;100.00;58600.66;4994965;28;20030;-74
2023/06/17 07:02:48;;;;;;;17.60;14.95;;;;;;;-145.41;100.00;58600.66;4988792;28;20027;-74
2023/06/17 07:05:14;;;;;;;18.50;14.98;;;;;;;-145.41;100.00;58600.66;4995527;28;20064;-74
2023/06/17 07:07:46;;;;;;;15.30;13.43;;;;;;;-145.41;100.00;58600.66;4994975;28;20026;-73
2023/06/17 07:10:12;;;;;;;16.35;14.70;;;;;;;-145.41;100.00;58600.66;4996987;28;20038;-74
2023/06/17 07:12:37;;;;;;;19.88;14.98;;;;;;;-145.41;100.00;58600.66;4995509;28;20022;-74
2023/06/17 07:15:03;;;;;;;18.17;16.15;;;;;;;-145.41;100.00;58600.66;4995521;28;20033;-75
2023/06/17 07:17:29;;;;;;;19.48;16.00;;;;;;;-145.41;100.00;58600.66;4994953;28;20034;-74
2023/06/17 07:19:55;;;;;;;18.65;16.67;;;;;;;-145.41;100.00;58600.66;4994650;28;20532;-74
2023/06/17 07:22:20;;;;;;;18.40;16.45;;;;;;;-145.41;100.00;58600.66;4994005;28;20029;-74
2023/06/17 07:24:46;;;;;;;17.60;15.48;;;;;;;-145.41;100.00;58600.66;4995215;28;20065;-74
2023/06/17 07:27:12;;;;;;;17.40;15.57;;;;;;;-145.41;100.00;58600.66;4995166;28;20034;-74
2023/06/17 07:29:38;;;;;;;16.90;15.07;;;;;;;-145.41;100.00;58600.66;4994391;28;20061;-74
2023/06/17 07:32:03;;;;;;;16.23;14.63;;;;;;;-145.41;100.00;58600.66;4994663;28;20042;-74
2023/06/17 07:34:30;;;;;;;21.10;16.23;;;;;;;-145.41;100.00;58600.66;4994610;28;20688;-74
2023/06/17 07:36:55;;;;;;;17.83;16.02;;;;;;;-145.41;100.00;58600.66;4994565;28;20116;-74
2023/06/17 07:39:22;;;;;;;16.88;15.00;;;;;;;-145.41;100.00;58600.66;5011900;28;20373;-74
2023/06/17 07:41:47;;;;;;;16.63;14.93;;;;;;;-145.41;100.00;58600.66;4994857;28;20049;-74
2023/06/17 07:44:13;;;;;;;18.95;14.35;;;;;;;-145.41;100.00;58600.66;5012325;28;20030;-73
2023/06/17 07:46:38;;;;;;;16.42;14.82;;;;;;;-145.41;100.00;58600.66;5012075;28;20022;-74
2023/06/17 07:49:03;;;;;;;16.65;14.90;;;;;;;-145.41;100.00;58600.66;5011611;28;20140;-74
2023/06/17 07:51:29;;;;;;;25.00;15.50;;;;;;;-145.41;100.00;58600.66;5012009;28;20534;-73
2023/06/17 07:53:54;;;;;;;16.63;14.93;;;;;;;-145.41;100.00;58600.66;5012283;28;20042;-76
2023/06/17 07:56:20;;;;;;;16.45;14.80;;;;;;;-145.41;100.00;58600.66;5012157;28;20038;-74
2023/06/17 07:58:46;;;;;;;16.08;14.38;;;;;;;-145.41;100.00;58600.66;5011762;28;20129;-73
2023/06/17 08:01:11;;;;;;;17.23;14.82;;;;;;;-145.41;100.00;58600.66;5011031;28;20037;-75
2023/06/17 08:03:37;;;;;;;15.77;14.27;;;;;;;-145.41;100.00;58600.66;5012032;28;20111;-75
2023/06/17 08:06:03;;;;;;;18.85;13.82;;;;;;;-145.41;100.00;58600.66;5011209;28;20037;-75
2023/06/17 08:08:29;;;;;;;17.80;15.90;;;;;;;-145.41;100.00;58600.66;5013546;28;20033;-74
2023/06/17 08:10:54;;;;;;;16.15;14.45;;;;;;;-145.41;100.00;58600.66;5010957;28;20044;-75
2023/06/17 08:13:20;;;;;;;17.42;14.95;;;;;;;-145.41;100.00;58600.66;5011690;28;20041;-74
2023/06/17 08:15:45;;;;;;;16.65;15.05;;;;;;;-145.41;100.00;58600.66;5009892;28;20061;-73
2023/06/17 08:18:11;;;;;;;16.33;14.63;;;;;;;-145.41;100.00;58600.66;5011629;28;20062;-74
2023/06/17 08:20:37;;;;;;;18.23;15.18;;;;;;;-145.41;100.00;58600.66;5010997;28;20045;-74
2023/06/17 08:23:03;;;;;;;17.65;15.65;;;;;;;-145.41;100.00;58600.66;4994126;28;20116;-74
2023/06/17 08:25:28;;;;;;;16.42;14.73;;;;;;;-145.41;100.00;58600.66;5011819;28;20073;-74
2023/06/17 08:27:54;;;;;;;17.90;14.77;;;;;;;-145.41;100.00;58600.66;5010883;28;20092;-74
2023/06/17 08:30:19;;;;;;;15.27;13.88;;;;;;;-145.41;100.00;58600.66;5009160;28;20104;-74
2023/06/17 08:32:45;;;;;;;13.52;12.23;;;;;;;-145.41;100.00;58600.66;5011201;28;20522;-74
2023/06/17 08:35:10;;;;;;;16.83;14.95;;;;;;;-145.41;100.00;58600.66;5011589;28;20033;-75
2023/06/17 08:37:35;;;;;;;16.88;15.32;;;;;;;-145.41;100.00;58600.66;5011294;28;20034;-73
2023/06/17 08:40:04;;;;;;;17.50;14.57;;;;;;;-145.41;100.00;58600.66;5010797;28;20041;-75
2023/06/17 08:42:29;;;;;;;16.83;14.60;;;;;;;-145.41;100.00;58600.66;5011308;28;20077;-75
2023/06/17 08:44:58;;;;;;;18.38;14.52;;;;;;;-145.41;100.00;58600.66;5011468;28;20116;-74
2023/06/17 08:47:25;;;;;;;16.63;14.93;;;;;;;-145.41;100.00;58600.66;5010700;28;20036;-73
2023/06/17 08:49:53;;;;;;;16.10;14.13;;;;;;;-145.41;100.00;58600.66;5010241;28;20037;-74
2023/06/17 08:52:19;;;;;;;17.52;13.73;;;;;;;-145.41;100.00;58600.66;5005932;28;20125;-74
2023/06/17 08:54:45;;;;;;;15.70;13.57;;;;;;;-145.41;100.00;58600.66;5010921;28;20030;-74
2023/06/17 08:57:12;;;;;;;17.20;15.35;;;;;;;-145.41;100.00;58600.66;5010574;28;20026;-74
2023/06/17 08:59:39;;;;;;;15.65;13.77;;;;;;;-145.41;100.00;58600.66;5006622;28;20683;-75
2023/06/17 09:02:05;;;;;;;14.85;13.38;;;;;;;-145.41;100.00;58600.66;5010695;28;20038;-74
2023/06/17 09:04:31;;;;;;;16.65;13.23;;;;;;;-145.41;100.00;58600.66;5007907;28;20080;-74
2023/06/17 09:06:56;;;;;;;14.45;13.05;;;;;;;-145.41;100.00;58600.66;5010907;28;20084;-73
2023/06/17 09:09:21;;;;;;;18.08;14.52;;;;;;;-145.41;100.00;58600.66;5010217;28;20064;-75
2023/06/17 09:11:51;;;;;;;16.80;14.27;;;;;;;-145.41;100.00;58600.66;5011115;28;20030;-74
2023/06/17 09:14:18;;;;;;;14.35;12.68;;;;;;;-145.41;100.00;58600.66;5011070;28;20056;-73
2023/06/17 09:16:44;;;;;;;14.35;12.57;;;;;;;-145.41;100.00;58600.66;4993288;28;20100;-72
2023/06/17 09:19:09;;;;;;;14.90;13.38;;;;;;;-145.41;100.00;58600.66;5009772;28;20576;-74
2023/06/17 09:21:36;;;;;;;14.95;13.30;;;;;;;-145.41;100.00;58600.66;5010476;28;20034;-75
2023/06/17 09:24:04;;;;;;;13.82;11.90;;;;;;;-145.41;100.00;58600.66;5010742;28;20026;-75
2023/06/17 09:26:41;;;;;;;12.80;11.48;;;;;;;-145.41;100.00;58600.66;5010971;28;20029;-75
2023/06/17 09:29:08;;;;;;;11.55;10.35;;;;;;;-145.41;100.00;58600.66;5003928;28;20088;-74
2023/06/17 09:31:47;;;;;;;12.80;10.65;;;;;;;-145.41;100.00;58600.66;5010295;28;20117;-75
2023/06/17 09:34:12;;;;;;;13.48;10.80;;;;;;;-145.41;100.00;58600.66;5002875;28;20072;-75
2023/06/17 09:36:39;;;;;;;12.80;10.55;;;;;;;-145.41;100.00;58600.66;5007132;28;20468;-75
2023/06/17 09:39:06;;;;;;;11.77;9.68;;;;;;;-145.41;100.00;58600.66;5009212;28;20034;-75
2023/06/17 09:41:36;;;;;;;12.52;8.88;;;;;;;-145.41;100.00;58600.66;4992210;28;20100;-74
2023/06/17 09:44:02;;;;;;;11.52;8.13;;;;;;;-145.41;100.00;58600.66;4993463;28;20037;-75
2023/06/17 09:46:35;;;;;;;9.82;7.75;;;;;;;-145.41;100.00;58600.66;5011952;28;20092;-75
2023/06/17 09:49:02;;;;;;;9.52;8.63;;;;;;;-145.41;100.00;58600.66;5013558;28;20058;-75
2023/06/17 09:51:36;;;;;;;9.85;8.85;;;;;;;-145.41;100.00;58600.66;5014293;28;20125;-75
2023/06/17 09:54:02;;;;;;;10.05;9.05;;;;;;;-145.41;100.00;58600.66;5053902;23;20863;-73
2023/06/17 09:56:31;;;;;;;11.43;8.90;;;;;;;-145.41;100.00;58600.66;5020274;28;20564;-75
2023/06/17 09:58:56;;;;;;;10.65;8.70;;;;;;;-145.41;100.00;58600.66;5037684;28;20448;-75
2023/06/17 10:01:24;;;;;;;9.93;8.93;;;;;;;-145.41;100.00;58600.66;5039756;28;20104;-74
2023/06/17 10:03:50;;;;;;;10.63;7.55;;;;;;;-145.41;100.00;58600.66;5039277;28;20484;-75
2023/06/17 10:06:19;;;;;;;8.80;7.75;;;;;;;-145.41;100.00;58600.66;5041235;28;20090;-75
2023/06/17 10:08:48;;;;;;;8.20;7.07;;;;;;;-145.41;100.00;58600.66;5017065;28;20037;-75
2023/06/17 10:11:18;;;;;;;7.45;6.50;;;;;;;-145.41;100.00;58600.66;5036866;28;20041;-74
2023/06/17 10:13:46;;;;;;;6.90;6.00;;;;;;;-145.41;100.00;58600.66;5027786;28;20048;-75
2023/06/17 10:16:14;;;;;;;8.70;6.78;;;;;;;-145.41;100.00;58600.66;5042503;28;20651;-75
2023/06/17 10:18:42;;;;;;;8.45;6.32;;;;;;;-145.41;100.00;58600.66;5037811;28;20365;-75
2023/06/17 10:21:11;;;;;;;9.23;7.65;;;;;;;-145.41;100.00;58600.66;5045209;28;20029;-75
2023/06/17 10:23:38;;;;;;;9.35;7.15;;;;;;;-145.41;100.00;58600.66;5043950;28;20140;-75
2023/06/17 10:26:07;;;;;;;11.23;7.00;;;;;;;-145.41;100.00;58600.66;5034137;28;20416;-74
2023/06/17 10:29:07;;;;;;;9.85;6.72;;;;;;;-145.41;100.00;58600.66;5026244;28;20408;-75
2023/06/17 10:31:42;;;;;;;9.32;7.68;;;;;;;-145.41;100.00;58600.66;5024265;28;20045;-75
2023/06/17 10:34:13;;;;;;;9.00;7.13;;;;;;;-145.41;100.00;58600.66;5041376;28;20404;-74
2023/06/17 10:36:38;;;;;;;10.02;8.90;;;;;;;-145.41;100.00;58600.66;5046960;28;20488;-75
2023/06/17 10:39:06;;;;;;;9.63;8.63;;;;;;;-145.41;100.00;58600.66;5037269;28;20048;-75
2023/06/17 10:41:42;;;;;;;10.77;9.68;;;;;;;-145.41;100.00;58600.66;5034892;28;20415;-75
2023/06/17 10:44:30;;;;;;;10.52;8.18;;;;;;;-145.41;100.00;58600.66;5041013;28;20403;-75
2023/06/17 10:46:56;;;;;;;13.75;11.15;;;;;;;-145.41;100.00;58600.66;5035854;28;20044;-75
2023/06/17 10:49:22;;;;;;;10.05;9.07;;;;;;;-145.41;100.00;58600.66;5045552;28;20107;-75
2023/06/17 10:51:48;;;;;;;8.65;7.28;;;;;;;-145.41;100.00;58600.66;5028369;28;20107;-75
2023/06/17 10:54:13;;;;;;;8.55;7.45;;;;;;;-145.41;100.00;58600.66;5034284;28;20026;-75
2023/06/17 10:56:46;;;;;;;9.77;8.35;;;;;;;-145.41;100.00;58600.66;5045047;28;20120;-75
2023/06/17 10:59:12;;;;;;;11.18;8.77;;;;;;;-145.41;100.00;58600.66;5040744;28;20931;-75
2023/06/17 11:01:41;;;;;;;10.98;7.93;;;;;;;-145.41;100.00;58600.66;5029594;28;20057;-75